Time;durP1;ratioP1;P1;durP2;ratioP2;P2;SDS_P1;SDS_P2;PMS_P1;PMS_P2;Temp;Humidity;BMP_temperature;BMP_pressure;BME280_temperature;BME280_humidity;BME280_pressure;Samples;Min_cycle;Max_cycle;Signal;HPM_P1;HPM_P2
2024/01/20 00:00:39;;;;;;;40.97;17.88;;;-3.60;74.50;;;;;;5015425;28;20022;-80
2024/01/20 00:03:05;;;;;;;35.60;17.20;;;-3.50;74.80;;;;;;5015408;28;20022;-82
2024/01/20 00:05:31;;;;;;;34.78;16.63;;;-3.50;75.20;;;;;;5015171;28;20033;-78
2024/01/20 00:07:57;;;;;;;34.25;14.93;;;-3.40;75.00;;;;;;4999128;28;20033;-77
2024/01/20 00:10:22;;;;;;;39.55;17.92;;;-3.30;74.50;;;;;;5017812;28;20025;-78
2024/01/20 00:12:48;;;;;;;35.28;17.80;;;-3.30;73.90;;;;;;5018578;28;20030;-80
2024/01/20 00:15:14;;;;;;;33.08;15.90;;;-3.30;74.00;;;;;;5022460;28;20120;-80
2024/01/20 00:17:40;;;;;;;40.03;17.75;;;-3.20;74.00;;;;;;5018622;28;20492;-79
2024/01/20 00:20:06;;;;;;;43.90;18.95;;;-3.10;74.10;;;;;;5018321;28;20030;-80
2024/01/20 00:22:32;;;;;;;44.63;20.17;;;-3.00;74.30;;;;;;5018298;28;20487;-80
2024/01/20 00:24:59;;;;;;;40.05;18.92;;;-3.00;74.20;;;;;;5018285;28;20040;-79
2024/01/20 00:27:25;;;;;;;40.03;17.48;;;-2.90;74.10;;;;;;5018170;28;20036;-80
2024/01/20 00:29:51;;;;;;;40.60;19.42;;;-2.90;74.00;;;;;;5017528;28;20493;-80
2024/01/20 00:32:18;;;;;;;38.80;18.42;;;-2.90;73.60;;;;;;5018542;28;20080;-80
2024/01/20 00:34:43;;;;;;;44.95;19.90;;;-3.00;73.20;;;;;;5002460;28;20113;-79
2024/01/20 00:37:09;;;;;;;41.88;20.25;;;-3.00;73.10;;;;;;5001986;28;20037;-79
2024/01/20 00:39:34;;;;;;;41.72;16.77;;;-3.00;72.70;;;;;;5018014;28;20025;-78
2024/01/20 00:42:00;;;;;;;34.33;17.15;;;-3.30;73.20;;;;;;5036154;28;20552;-79
2024/01/20 00:44:25;;;;;;;38.05;18.52;;;-3.40;73.40;;;;;;5018130;28;20456;-77
2024/01/20 00:46:51;;;;;;;38.70;17.95;;;-3.60;72.70;;;;;;5017926;28;20410;-77
2024/01/20 00:49:18;;;;;;;39.65;18.08;;;-3.70;72.40;;;;;;5018135;28;20052;-78
2024/01/20 00:51:45;;;;;;;39.17;17.13;;;-3.70;73.10;;;;;;5001526;28;20060;-78
2024/01/20 00:54:11;;;;;;;40.85;18.52;;;-3.80;73.50;;;;;;5017893;28;20025;-78
2024/01/20 00:56:36;;;;;;;34.45;16.83;;;-3.80;73.50;;;;;;5017644;28;20034;-77
2024/01/20 00:59:02;;;;;;;33.92;15.90;;;-3.80;72.10;;;;;;5017187;28;20032;-78
2024/01/20 01:01:28;;;;;;;29.33;12.93;;;-4.00;69.00;;;;;;5017831;28;20025;-78
2024/01/20 01:03:53;;;;;;;27.58;13.15;;;-4.10;68.90;;;;;;5017710;28;20417;-77
2024/01/20 01:06:19;;;;;;;28.08;14.10;;;-4.20;68.70;;;;;;5016817;28;20034;-77
2024/01/20 01:08:44;;;;;;;30.40;15.82;;;-4.10;69.40;;;;;;5017669;28;20045;-78
2024/01/20 01:11:10;;;;;;;29.75;15.75;;;-4.10;69.90;;;;;;5017480;28;20080;-79
2024/01/20 01:13:37;;;;;;;31.23;14.95;;;-4.10;70.00;;;;;;5035222;28;20031;-78
2024/01/20 01:16:04;;;;;;;29.73;15.60;;;-4.10;70.10;;;;;;5001424;28;20036;-79
2024/01/20 01:18:32;;;;;;;28.55;14.90;;;-4.10;70.30;;;;;;5017517;28;20053;-78
2024/01/20 01:20:57;;;;;;;31.02;15.27;;;-4.00;70.30;;;;;;5015540;28;20067;-78
2024/01/20 01:23:23;;;;;;;29.45;15.35;;;-4.00;69.30;;;;;;5017434;28;20025;-78
2024/01/20 01:25:49;;;;;;;26.65;13.35;;;-4.00;69.00;;;;;;5000757;28;20034;-77
2024/01/20 01:28:15;;;;;;;29.65;13.95;;;-4.00;68.60;;;;;;5017243;28;20025;-77
2024/01/20 01:30:42;;;;;;;28.02;13.40;;;-4.00;68.50;;;;;;5017448;28;20116;-77
2024/01/20 01:33:07;;;;;;;26.52;13.80;;;-4.00;68.80;;;;;;5017086;28;20474;-77
2024/01/20 01:35:33;;;;;;;33.75;16.52;;;-4.00;69.00;;;;;;5017286;28;20139;-77
2024/01/20 01:37:58;;;;;;;51.33;18.90;;;-3.90;70.00;;;;;;5017074;28;20053;-76
2024/01/20 01:40:25;;;;;;;52.20;19.92;;;-4.00;70.40;;;;;;5017013;28;20470;-77
2024/01/20 01:42:56;;;;;;;41.03;18.42;;;-4.00;71.40;;;;;;5034515;28;20160;-79
2024/01/20 01:45:25;;;;;;;36.50;15.45;;;-4.10;71.60;;;;;;5016684;28;20022;-77
2024/01/20 01:47:55;;;;;;;33.25;14.93;;;-4.10;71.80;;;;;;5016893;28;20037;-77
2024/01/20 01:50:23;;;;;;;33.25;16.40;;;-4.10;71.50;;;;;;5016974;28;20021;-77
2024/01/20 01:52:54;;;;;;;44.33;18.40;;;-4.10;71.50;;;;;;5034158;28;20059;-78
2024/01/20 01:55:22;;;;;;;49.65;22.17;;;-4.00;71.80;;;;;;5016516;28;20044;-77
2024/01/20 01:57:53;;;;;;;42.53;18.52;;;-4.00;72.50;;;;;;5034638;28;20104;-77
2024/01/20 02:00:19;;;;;;;44.85;18.48;;;-4.10;72.80;;;;;;5016780;28;20159;-77
2024/01/20 02:02:44;;;;;;;46.53;19.17;;;-4.00;73.50;;;;;;5016172;28;20056;-78
2024/01/20 02:05:11;;;;;;;43.70;19.92;;;-4.00;73.80;;;;;;5016768;28;20089;-77
2024/01/20 02:07:38;;;;;;;47.17;20.45;;;-4.00;74.20;;;;;;5033946;28;20021;-79
2024/01/20 02:10:06;;;;;;;43.35;18.27;;;-4.00;74.60;;;;;;5016575;28;20373;-78
2024/01/20 02:12:33;;;;;;;44.03;18.23;;;-4.10;75.10;;;;;;5016309;28;20037;-77
2024/01/20 02:14:59;;;;;;;45.58;18.80;;;-4.00;75.20;;;;;;5016250;28;20108;-78
2024/01/20 02:17:25;;;;;;;41.40;18.33;;;-4.00;75.10;;;;;;5016220;28;20029;-79
2024/01/20 02:19:51;;;;;;;45.75;20.00;;;-3.90;75.10;;;;;;5034005;28;20018;-79
2024/01/20 02:22:17;;;;;;;50.75;22.05;;;-4.00;74.70;;;;;;5015956;28;20025;-79
2024/01/20 02:24:50;;;;;;;46.35;20.17;;;-4.10;75.10;;;;;;5033573;28;20394;-77
2024/01/20 02:27:17;;;;;;;51.75;22.25;;;-4.10;75.20;;;;;;5015984;28;20021;-78
2024/01/20 02:29:42;;;;;;;46.60;21.13;;;-4.00;75.50;;;;;;5016425;28;20072;-78
2024/01/20 02:32:08;;;;;;;51.05;21.10;;;-4.10;76.10;;;;;;5015919;28;20065;-77
2024/01/20 02:34:34;;;;;;;47.53;20.52;;;-4.10;76.20;;;;;;5016128;28;20029;-77
2024/01/20 02:37:00;;;;;;;51.47;21.42;;;-4.10;76.20;;;;;;5016093;28;20029;-77
2024/01/20 02:39:28;;;;;;;50.38;21.38;;;-4.00;76.30;;;;;;5033606;28;20100;-77
2024/01/20 02:41:53;;;;;;;56.75;22.80;;;-4.10;76.20;;;;;;5015944;28;20029;-77
2024/01/20 02:44:19;;;;;;;51.50;23.42;;;-4.10;75.90;;;;;;4999119;28;20163;-77
2024/01/20 02:46:44;;;;;;;56.40;24.95;;;-4.10;76.30;;;;;;5015373;28;20386;-78
2024/01/20 02:49:10;;;;;;;51.10;23.92;;;-4.00;76.10;;;;;;5015746;28;20040;-78
2024/01/20 02:51:35;;;;;;;56.60;23.83;;;-4.00;76.00;;;;;;5015169;28;20061;-79
2024/01/20 02:54:01;;;;;;;52.47;24.05;;;-4.00;76.00;;;;;;5015376;28;20120;-78
2024/01/20 02:56:26;;;;;;;58.95;25.00;;;-4.10;76.00;;;;;;5015782;28;20037;-77
2024/01/20 02:58:52;;;;;;;54.25;24.50;;;-4.20;76.10;;;;;;5015544;28;20037;-77
2024/01/20 03:01:19;;;;;;;52.20;22.10;;;-4.30;76.40;;;;;;5015593;28;20374;-84
2024/01/20 03:03:45;;;;;;;53.33;22.92;;;-4.30;76.70;;;;;;5015659;28;20037;-77
2024/01/20 03:06:11;;;;;;;60.67;24.60;;;-4.30;77.00;;;;;;5015360;28;20025;-77
2024/01/20 03:08:36;;;;;;;55.60;24.83;;;-4.30;77.10;;;;;;5015637;28;20116;-78
2024/01/20 03:11:03;;;;;;;54.50;23.38;;;-4.30;77.60;;;;;;5015333;28;20476;-77
2024/01/20 03:13:29;;;;;;;49.17;21.58;;;-4.30;77.60;;;;;;5015135;28;20052;-78
2024/01/20 03:15:54;;;;;;;52.47;24.45;;;-4.30;77.10;;;;;;4998792;28;20053;-77
2024/01/20 03:18:20;;;;;;;46.72;21.48;;;-4.30;76.90;;;;;;5015400;28;20112;-77
2024/01/20 03:20:47;;;;;;;48.17;21.33;;;-4.30;76.50;;;;;;5014844;28;20033;-77
2024/01/20 03:23:12;;;;;;;45.28;19.63;;;-4.30;76.20;;;;;;5014935;28;20113;-77
2024/01/20 03:25:38;;;;;;;52.88;22.58;;;-4.20;76.20;;;;;;5032949;28;20111;-78
2024/01/20 03:28:04;;;;;;;57.58;21.92;;;-4.30;75.20;;;;;;5015402;28;20032;-77
2024/01/20 03:30:29;;;;;;;52.47;22.20;;;-4.40;74.90;;;;;;5015086;28;20025;-77
2024/01/20 03:32:56;;;;;;;47.92;20.00;;;-4.40;75.00;;;;;;5015039;28;20183;-77
2024/01/20 03:35:22;;;;;;;48.20;19.38;;;-4.50;74.60;;;;;;5015222;28;20045;-78
2024/01/20 03:37:48;;;;;;;47.25;19.52;;;-4.60;75.00;;;;;;5014849;28;20084;-78
2024/01/20 03:40:14;;;;;;;48.83;20.27;;;-4.70;75.30;;;;;;5015475;28;20407;-78
2024/01/20 03:42:39;;;;;;;46.67;20.83;;;-4.90;75.50;;;;;;4998861;28;20025;-78
2024/01/20 03:45:05;;;;;;;53.15;21.80;;;-5.00;76.20;;;;;;5017904;28;20026;-79
2024/01/20 03:47:31;;;;;;;45.22;20.08;;;-5.20;76.20;;;;;;5019314;28;20485;-79
2024/01/20 03:49:57;;;;;;;46.72;19.42;;;-5.20;76.30;;;;;;5019364;28;20026;-79
2024/01/20 03:52:22;;;;;;;40.13;17.38;;;-5.30;76.40;;;;;;5018828;28;20563;-79
2024/01/20 03:54:48;;;;;;;57.75;20.90;;;-5.40;76.60;;;;;;5018949;28;20453;-78
2024/01/20 03:57:15;;;;;;;47.90;20.85;;;-5.40;76.90;;;;;;5018929;28;20471;-77
2024/01/20 03:59:43;;;;;;;44.85;20.05;;;-5.50;76.90;;;;;;5036599;28;20104;-77
2024/01/20 04:02:08;;;;;;;40.63;19.42;;;-5.50;77.00;;;;;;5018687;28;20025;-77
2024/01/20 04:04:37;;;;;;;48.22;21.60;;;-5.50;77.10;;;;;;5018802;28;20124;-77
2024/01/20 04:07:03;;;;;;;43.80;19.50;;;-5.60;76.60;;;;;;5036412;28;20116;-78
2024/01/20 04:09:28;;;;;;;42.22;18.35;;;-5.70;76.80;;;;;;5018907;28;20095;-79
2024/01/20 04:11:54;;;;;;;45.78;18.77;;;-5.70;76.80;;;;;;5018319;28;20438;-78
2024/01/20 04:14:19;;;;;;;42.03;17.20;;;-5.70;76.60;;;;;;5018485;28;20133;-78
2024/01/20 04:16:45;;;;;;;39.72;15.65;;;-5.60;76.60;;;;;;5018676;28;20560;-80
2024/01/20 04:19:10;;;;;;;36.88;16.20;;;-5.50;76.10;;;;;;5018657;28;20022;-79
2024/01/20 04:21:36;;;;;;;34.30;16.05;;;-5.50;75.30;;;;;;5018618;28;20031;-77
2024/01/20 04:24:01;;;;;;;35.55;15.93;;;-5.50;74.50;;;;;;5018402;28;20064;-77
2024/01/20 04:26:27;;;;;;;34.22;16.60;;;-5.40;73.80;;;;;;5018188;28;20030;-77
2024/01/20 04:28:53;;;;;;;36.85;16.55;;;-5.30;73.20;;;;;;5037615;28;20459;-76
2024/01/20 04:31:18;;;;;;;40.63;18.02;;;-5.20;72.30;;;;;;5021297;28;20497;-77
2024/01/20 04:33:44;;;;;;;42.67;17.95;;;-5.10;72.20;;;;;;5018217;28;20148;-77
2024/01/20 04:36:09;;;;;;;36.08;17.08;;;-5.10;71.30;;;;;;5017932;28;20080;-77
2024/01/20 04:38:35;;;;;;;34.15;14.43;;;-5.20;70.40;;;;;;5018112;28;20393;-78
2024/01/20 04:41:00;;;;;;;35.17;14.38;;;-5.40;70.20;;;;;;5017965;28;20463;-77
2024/01/20 04:43:27;;;;;;;41.13;18.20;;;-5.40;70.30;;;;;;5018000;28;20530;-78
2024/01/20 04:45:53;;;;;;;45.60;18.38;;;-5.70;72.60;;;;;;5019278;28;20052;-77
2024/01/20 04:48:19;;;;;;;60.20;20.40;;;-5.90;74.80;;;;;;5017641;28;20021;-77
2024/01/20 04:50:45;;;;;;;61.53;20.10;;;-6.00;75.70;;;;;;5034588;28;20041;-78
2024/01/20 04:53:11;;;;;;;84.93;18.88;;;-6.10;76.60;;;;;;5017443;28;20375;-77
2024/01/20 04:55:37;;;;;;;46.70;19.42;;;-6.20;77.80;;;;;;4999861;28;20033;-77
2024/01/20 04:58:02;;;;;;;55.13;20.63;;;-6.20;78.70;;;;;;5017183;28;20533;-77
2024/01/20 05:00:28;;;;;;;47.22;20.85;;;-6.10;79.10;;;;;;5001149;28;20052;-78
2024/01/20 05:02:53;;;;;;;54.35;21.63;;;-5.90;79.30;;;;;;5017680;28;20401;-78
2024/01/20 05:05:19;;;;;;;58.45;22.80;;;-5.80;79.40;;;;;;5017662;28;20406;-78
2024/01/20 05:07:44;;;;;;;60.88;23.50;;;-5.70;79.20;;;;;;5017631;28;20066;-77
2024/01/20 05:10:10;;;;;;;61.35;23.35;;;-5.60;79.00;;;;;;5017491;28;20057;-77
2024/01/20 05:12:36;;;;;;;59.55;22.13;;;-5.70;78.70;;;;;;5016799;28;20375;-77
2024/01/20 05:15:01;;;;;;;59.53;22.05;;;-5.70;78.90;;;;;;5017391;28;20026;-77
2024/01/20 05:17:27;;;;;;;62.25;22.65;;;-5.60;79.30;;;;;;5017242;28;20520;-77
2024/01/20 05:19:53;;;;;;;59.25;21.40;;;-5.60;79.00;;;;;;5016913;28;20032;-77
2024/01/20 05:22:18;;;;;;;60.50;21.95;;;-5.60;78.80;;;;;;5017381;28;20104;-77
2024/01/20 05:24:44;;;;;;;72.22;21.08;;;-5.50;79.00;;;;;;5034896;28;20026;-79
2024/01/20 05:27:10;;;;;;;55.28;20.27;;;-5.50;78.50;;;;;;5016903;28;20026;-78
2024/01/20 05:29:36;;;;;;;55.85;21.73;;;-5.50;78.20;;;;;;5016910;28;20121;-79
2024/01/20 05:32:02;;;;;;;57.83;21.75;;;-5.40;78.20;;;;;;5017153;28;20120;-79
2024/01/20 05:34:28;;;;;;;60.70;23.13;;;-5.50;77.10;;;;;;5016930;28;20068;-78
2024/01/20 05:36:53;;;;;;;56.00;22.33;;;-5.60;77.10;;;;;;5034628;28;20033;-77
2024/01/20 05:39:19;;;;;;;52.05;21.83;;;-5.50;77.40;;;;;;5034379;28;20120;-80
2024/01/20 05:41:44;;;;;;;55.25;23.75;;;-5.50;77.40;;;;;;5016553;28;20057;-79
2024/01/20 05:44:10;;;;;;;57.55;23.13;;;-5.50;77.30;;;;;;5016837;28;20045;-80
2024/01/20 05:46:35;;;;;;;55.67;22.48;;;-5.40;77.20;;;;;;5017014;28;20029;-79
2024/01/20 05:49:01;;;;;;;55.28;24.92;;;-5.40;76.40;;;;;;5016934;28;20172;-79
2024/01/20 05:51:26;;;;;;;71.47;30.92;;;-5.40;75.90;;;;;;5016186;28;20086;-80
2024/01/20 05:53:52;;;;;;;69.72;29.45;;;-5.30;75.30;;;;;;5017127;28;20125;-80
2024/01/20 05:56:20;;;;;;;58.72;26.67;;;-5.30;74.70;;;;;;5016652;28;20026;-80
2024/01/20 05:58:46;;;;;;;58.45;24.98;;;-5.20;73.90;;;;;;5034342;28;20032;-79
2024/01/20 06:01:11;;;;;;;52.05;21.95;;;-5.30;73.30;;;;;;5016870;28;20064;-80
2024/01/20 06:03:37;;;;;;;64.90;23.50;;;-5.30;72.90;;;;;;5016565;28;20022;-79
2024/01/20 06:06:04;;;;;;;60.97;20.60;;;-5.40;72.70;;;;;;5034157;28;20388;-77
2024/01/20 06:08:29;;;;;;;94.90;23.52;;;-5.60;73.70;;;;;;5016013;28;20108;-77
2024/01/20 06:10:55;;;;;;;63.63;23.55;;;-5.70;75.10;;;;;;5016292;28;20101;-77
2024/01/20 06:13:21;;;;;;;70.28;23.80;;;-5.70;75.50;;;;;;5033969;28;20036;-77
2024/01/20 06:15:46;;;;;;;65.43;22.42;;;-5.70;76.40;;;;;;5016504;28;20026;-77
2024/01/20 06:18:12;;;;;;;65.75;22.92;;;-5.60;76.50;;;;;;5016354;28;20021;-77
2024/01/20 06:20:38;;;;;;;77.82;25.20;;;-5.60;76.60;;;;;;5016525;28;20071;-77
2024/01/20 06:23:04;;;;;;;76.00;26.33;;;-5.60;76.80;;;;;;5016155;28;20028;-76
2024/01/20 06:25:30;;;;;;;62.58;22.80;;;-5.60;77.10;;;;;;5016545;28;20121;-76
2024/01/20 06:27:55;;;;;;;57.35;20.88;;;-5.50;76.50;;;;;;5017148;28;20037;-76
2024/01/20 06:30:21;;;;;;;52.72;19.42;;;-5.40;75.60;;;;;;5020316;28;20021;-79
2024/01/20 06:32:47;;;;;;;74.60;24.60;;;-5.40;74.40;;;;;;5016384;28;20041;-76
2024/01/20 06:35:12;;;;;;;65.65;24.23;;;-5.40;73.90;;;;;;5015822;28;20143;-77
2024/01/20 06:37:38;;;;;;;68.70;26.58;;;-5.40;73.50;;;;;;5033425;28;20177;-79
2024/01/20 06:40:04;;;;;;;71.82;26.45;;;-5.40;73.50;;;;;;5015716;28;20034;-76
2024/01/20 06:42:30;;;;;;;70.57;24.70;;;-5.40;73.60;;;;;;4999591;28;20068;-79
2024/01/20 06:44:55;;;;;;;68.47;23.67;;;-5.40;73.70;;;;;;5016087;28;20069;-76
2024/01/20 06:47:22;;;;;;;71.05;24.45;;;-5.40;73.60;;;;;;4999842;28;20099;-80
2024/01/20 06:49:49;;;;;;;63.55;22.92;;;-5.40;73.30;;;;;;5016440;28;20026;-77
2024/01/20 06:52:15;;;;;;;66.35;21.33;;;-5.40;73.40;;;;;;5017027;28;20498;-76
2024/01/20 06:54:41;;;;;;;66.45;24.38;;;-5.40;73.70;;;;;;5017439;28;20029;-76
2024/01/20 06:57:07;;;;;;;64.40;23.70;;;-5.40;73.80;;;;;;5016690;28;20026;-77
2024/01/20 06:59:32;;;;;;;68.55;23.90;;;-5.40;73.70;;;;;;5016822;28;20017;-77
2024/01/20 07:01:58;;;;;;;64.07;21.42;;;-5.50;74.00;;;;;;5019077;28;20022;-78
2024/01/20 07:04:24;;;;;;;66.65;24.80;;;-5.50;73.50;;;;;;5017581;28;20033;-77
2024/01/20 07:06:50;;;;;;;64.82;23.95;;;-5.60;73.00;;;;;;5033440;28;20017;-77
2024/01/20 07:09:15;;;;;;;66.38;22.52;;;-5.60;73.20;;;;;;5015218;28;20021;-78
2024/01/20 07:11:41;;;;;;;68.13;22.83;;;-5.60;73.00;;;;;;5015754;28;20343;-78
2024/01/20 07:14:06;;;;;;;59.08;20.77;;;-5.60;72.50;;;;;;5015684;28;20382;-78
2024/01/20 07:16:32;;;;;;;51.90;19.65;;;-5.60;71.70;;;;;;5015748;28;20026;-78
2024/01/20 07:18:57;;;;;;;59.13;21.25;;;-5.60;70.90;;;;;;5014566;28;20017;-79
2024/01/20 07:21:23;;;;;;;69.82;25.77;;;-5.60;70.30;;;;;;5015152;28;20544;-79
2024/01/20 07:23:49;;;;;;;59.42;25.05;;;-5.60;70.40;;;;;;5015250;28;20056;-79
2024/01/20 07:26:15;;;;;;;60.45;24.73;;;-5.50;70.40;;;;;;5015687;28;20029;-79
2024/01/20 07:28:41;;;;;;;62.00;24.02;;;-5.50;69.90;;;;;;5015589;28;20017;-79
2024/01/20 07:31:06;;;;;;;74.00;28.27;;;-5.40;69.20;;;;;;5014983;28;20486;-78
2024/01/20 07:33:33;;;;;;;71.70;28.08;;;-5.50;68.90;;;;;;5015315;28;20026;-78
2024/01/20 07:35:59;;;;;;;75.38;27.17;;;-5.50;69.40;;;;;;5015394;28;20459;-77
2024/01/20 07:38:25;;;;;;;63.20;23.70;;;-5.50;69.50;;;;;;5015037;28;20022;-77
2024/01/20 07:40:53;;;;;;;62.45;21.75;;;-5.50;69.80;;;;;;5032789;28;20493;-80
2024/01/20 07:43:20;;;;;;;49.33;19.73;;;-5.40;69.70;;;;;;5015426;28;20491;-77
2024/01/20 07:45:46;;;;;;;43.35;17.77;;;-5.40;68.70;;;;;;5015151;28;20382;-79
2024/01/20 07:48:11;;;;;;;42.28;16.23;;;-5.30;68.00;;;;;;5015236;28;20028;-79
2024/01/20 07:50:37;;;;;;;41.05;16.52;;;-5.30;67.80;;;;;;5015732;28;20025;-80
2024/01/20 07:53:03;;;;;;;44.88;16.88;;;-5.30;67.00;;;;;;5033572;28;20129;-76
2024/01/20 07:55:29;;;;;;;37.53;17.02;;;-5.30;66.50;;;;;;5037025;28;20013;-80
2024/01/20 07:57:55;;;;;;;47.90;16.80;;;-5.20;66.40;;;;;;5015991;28;20024;-79
2024/01/20 08:00:22;;;;;;;48.97;20.55;;;-5.20;66.60;;;;;;5014870;28;20049;-79
2024/01/20 08:02:47;;;;;;;47.00;19.33;;;-5.10;66.60;;;;;;5015663;28;20057;-77
2024/01/20 08:05:13;;;;;;;48.53;20.67;;;-5.00;66.80;;;;;;5032532;28;20068;-81
2024/01/20 08:07:38;;;;;;;50.22;15.77;;;-5.00;66.60;;;;;;5015057;28;20075;-76
2024/01/20 08:10:04;;;;;;;68.03;30.95;;;-3.60;86.10;;;;;;5015263;28;20474;-78
2024/01/20 08:12:30;;;;;;;61.22;28.23;;;-2.60;95.60;;;;;;5032401;28;20071;-80
2024/01/20 08:14:56;;;;;;;59.78;25.85;;;-2.30;95.90;;;;;;5014994;28;20025;-79
2024/01/20 08:17:22;;;;;;;56.78;27.42;;;-2.00;93.50;;;;;;5015268;28;20060;-76
2024/01/20 08:19:48;;;;;;;59.75;27.13;;;-2.10;87.70;;;;;;5032529;28;20021;-80
2024/01/20 08:22:14;;;;;;;54.83;29.33;;;-1.90;77.80;;;;;;5015030;28;20120;-79
2024/01/20 08:24:40;;;;;;;59.25;29.55;;;-1.70;71.60;;;;;;5015295;28;20148;-77
2024/01/20 08:27:05;;;;;;;50.60;24.48;;;-1.40;65.60;;;;;;5014862;28;20037;-82
2024/01/20 08:29:31;;;;;;;40.45;21.27;;;-1.20;62.60;;;;;;5033144;28;20028;-81
2024/01/20 08:31:56;;;;;;;43.40;21.25;;;-0.40;58.90;;;;;;5035898;28;20037;-79
2024/01/20 08:34:22;;;;;;;42.72;21.20;;;0.10;56.00;;;;;;5018401;28;20026;-78
2024/01/20 08:36:48;;;;;;;53.15;24.17;;;0.30;54.20;;;;;;5019568;28;20037;-82
2024/01/20 08:39:13;;;;;;;53.15;29.88;;;0.20;52.60;;;;;;5028035;28;20025;-80
2024/01/20 08:41:39;;;;;;;56.45;29.83;;;-0.20;52.30;;;;;;5018134;28;20029;-77
2024/01/20 08:44:04;;;;;;;56.47;28.88;;;-0.60;53.20;;;;;;5018941;28;20036;-77
2024/01/20 08:46:30;;;;;;;51.65;27.63;;;-1.00;53.90;;;;;;5020377;28;20021;-78
2024/01/20 08:48:56;;;;;;;54.88;28.17;;;-1.20;55.10;;;;;;5020085;28;20075;-76
2024/01/20 08:51:22;;;;;;;57.15;26.92;;;-1.40;55.30;;;;;;5017207;28;20587;-76
2024/01/20 08:53:47;;;;;;;55.17;29.27;;;-1.50;56.20;;;;;;5035745;28;20095;-77
2024/01/20 08:56:14;;;;;;;56.03;29.05;;;-1.80;56.20;;;;;;5035958;28;20068;-76
2024/01/20 08:58:40;;;;;;;53.70;28.92;;;-2.10;57.90;;;;;;5035915;28;20033;-77
2024/01/20 09:01:06;;;;;;;55.53;29.38;;;-2.30;58.40;;;;;;5017970;28;20029;-77
2024/01/20 09:03:32;;;;;;;55.60;30.95;;;-2.30;59.50;;;;;;5017555;28;20060;-77
2024/01/20 09:05:57;;;;;;;60.03;29.52;;;-2.40;60.90;;;;;;5035361;28;20053;-76
2024/01/20 09:08:23;;;;;;;51.35;24.77;;;-2.20;60.60;;;;;;5035176;28;20372;-76
2024/01/20 09:10:48;;;;;;;49.55;25.75;;;-2.20;60.10;;;;;;5017258;28;20121;-77
2024/01/20 09:13:14;;;;;;;50.45;25.13;;;-2.10;60.30;;;;;;5017713;28;20040;-77
2024/01/20 09:15:40;;;;;;;54.88;26.67;;;-1.90;60.40;;;;;;5039380;28;20041;-77
2024/01/20 09:18:06;;;;;;;47.28;22.80;;;-2.00;62.00;;;;;;5016958;28;20068;-77
2024/01/20 09:20:32;;;;;;;47.53;25.30;;;-1.80;61.60;;;;;;5016455;28;20451;-77
2024/01/20 09:22:58;;;;;;;44.40;24.27;;;-1.50;61.80;;;;;;5017018;28;20065;-76
2024/01/20 09:25:23;;;;;;;42.42;22.35;;;-1.40;60.90;;;;;;5017100;28;20052;-77
2024/01/20 09:27:49;;;;;;;42.67;23.33;;;-1.40;62.10;;;;;;5034762;28;20053;-77
2024/01/20 09:30:15;;;;;;;39.85;22.67;;;-1.10;61.50;;;;;;5017173;28;20385;-77
2024/01/20 09:32:40;;;;;;;39.97;22.02;;;-0.80;60.50;;;;;;5000369;28;20033;-76
2024/01/20 09:35:06;;;;;;;48.00;23.77;;;-0.70;59.60;;;;;;5032240;28;20029;-75
2024/01/20 09:37:36;;;;;;;37.50;20.75;;;-0.30;58.70;;;;;;5033140;28;20075;-78
2024/01/20 09:40:05;;;;;;;42.55;22.25;;;-0.10;58.20;;;;;;5016854;28;20117;-77
2024/01/20 09:42:30;;;;;;;39.95;21.98;;;0.20;57.30;;;;;;5016062;28;20018;-77
2024/01/20 09:44:57;;;;;;;34.63;22.20;;;0.50;56.70;;;;;;5033372;28;20036;-77
2024/01/20 09:47:22;;;;;;;46.97;23.88;;;0.80;55.90;;;;;;5016725;28;20017;-77
2024/01/20 09:49:49;;;;;;;40.17;22.23;;;1.00;54.50;;;;;;5033019;28;20490;-77
2024/01/20 09:52:18;;;;;;;35.67;21.88;;;1.10;54.10;;;;;;5034240;28;20125;-77
2024/01/20 09:55:23;;;;;;;39.08;24.60;;;1.00;54.00;;;;;;5016349;28;20159;-77
2024/01/20 09:57:50;;;;;;;39.00;23.65;;;1.30;54.30;;;;;;5034343;28;20029;-77
2024/01/20 10:00:19;;;;;;;40.00;22.70;;;1.50;53.50;;;;;;5016305;28;20025;-77
2024/01/20 10:02:45;;;;;;;39.83;23.75;;;1.80;53.50;;;;;;5034124;28;20060;-77
2024/01/20 10:05:12;;;;;;;37.60;22.58;;;2.20;52.20;;;;;;5034019;28;20032;-77
2024/01/20 10:07:38;;;;;;;39.05;24.25;;;2.50;51.10;;;;;;5033398;28;20037;-78
2024/01/20 10:10:05;;;;;;;35.47;22.88;;;2.80;50.30;;;;;;5015984;28;20029;-77
2024/01/20 10:12:31;;;;;;;37.63;23.05;;;3.00;49.30;;;;;;5016176;28;20033;-76
2024/01/20 10:14:56;;;;;;;37.78;22.90;;;3.10;49.20;;;;;;5032660;28;20520;-75
2024/01/20 10:17:23;;;;;;;36.72;22.40;;;3.10;49.20;;;;;;5016039;28;20037;-77
2024/01/20 10:19:49;;;;;;;36.92;22.42;;;3.30;49.50;;;;;;5033829;28;20021;-78
2024/01/20 10:22:14;;;;;;;37.53;23.02;;;3.40;48.70;;;;;;5032841;28;20038;-78
2024/01/20 10:24:50;;;;;;;39.35;24.55;;;3.60;48.80;;;;;;5033662;28;20057;-77
2024/01/20 10:27:19;;;;;;;37.63;24.95;;;3.70;48.90;;;;;;5015579;28;20029;-78
2024/01/20 10:29:46;;;;;;;37.88;25.10;;;3.50;49.30;;;;;;5014810;28;20053;-77
2024/01/20 10:32:12;;;;;;;35.47;22.83;;;3.70;49.60;;;;;;5033553;28;20084;-77
2024/01/20 10:34:38;;;;;;;34.25;21.73;;;4.00;48.60;;;;;;5015948;28;20021;-77
2024/01/20 10:37:12;;;;;;;30.45;19.02;;;4.10;48.30;;;;;;5015772;28;20432;-78
2024/01/20 10:39:44;;;;;;;21.67;14.40;;;4.30;46.70;;;;;;5033952;28;20024;-78
2024/01/20 10:42:12;;;;;;;25.45;17.05;;;4.40;45.30;;;;;;5038619;28;20063;-78
2024/01/20 10:44:50;;;;;;;27.58;18.40;;;4.60;46.10;;;;;;5015777;28;20017;-77
2024/01/20 10:47:25;;;;;;;28.20;20.02;;;4.90;46.30;;;;;;5011858;28;20029;-77
2024/01/20 10:49:51;;;;;;;29.73;18.88;;;5.10;45.00;;;;;;5033112;28;20046;-78
2024/01/20 10:52:17;;;;;;;28.83;19.65;;;5.20;44.50;;;;;;5032846;28;20159;-77
2024/01/20 10:54:44;;;;;;;27.02;19.08;;;5.30;44.00;;;;;;5015032;28;20028;-76
2024/01/20 10:57:12;;;;;;;29.48;20.35;;;5.50;43.60;;;;;;5032940;28;20029;-77
2024/01/20 10:59:43;;;;;;;29.83;20.75;;;5.60;43.90;;;;;;5015452;28;20075;-75
2024/01/20 11:02:10;;;;;;;33.38;22.48;;;5.70;43.90;;;;;;5032833;28;20025;-77
2024/01/20 11:04:39;;;;;;;38.67;25.95;;;5.20;45.70;;;;;;5015444;28;20022;-77
2024/01/20 11:07:08;;;;;;;40.95;28.42;;;5.20;46.60;;;;;;5015333;28;20116;-81
2024/01/20 11:09:35;;;;;;;41.88;27.63;;;5.30;47.40;;;;;;5014972;28;20486;-81
2024/01/20 11:12:07;;;;;;;38.05;26.23;;;5.20;47.60;;;;;;5015357;28;20037;-77
2024/01/20 11:14:35;;;;;;;44.15;29.60;;;5.10;47.20;;;;;;5014979;28;20032;-79
2024/01/20 11:17:12;;;;;;;49.25;34.17;;;5.50;46.50;;;;;;5015951;28;20025;-79
2024/01/20 11:19:39;;;;;;;45.67;31.48;;;5.70;45.50;;;;;;5015653;28;20386;-79
2024/01/20 11:22:25;;;;;;;42.45;28.17;;;6.10;45.20;;;;;;5015177;28;20048;-79
2024/01/20 11:24:54;;;;;;;36.03;23.98;;;6.50;43.90;;;;;;5015066;28;20025;-80
2024/01/20 11:27:19;;;;;;;34.47;24.25;;;6.90;42.70;;;;;;4983320;28;20037;-79
2024/01/20 11:29:45;;;;;;;34.58;24.23;;;7.30;41.60;;;;;;5015144;28;20442;-79
2024/01/20 11:32:11;;;;;;;33.97;22.85;;;7.60;41.60;;;;;;5033103;28;20044;-79
2024/01/20 11:34:36;;;;;;;32.80;24.05;;;7.90;39.90;;;;;;5014978;28;20018;-79
2024/01/20 11:37:04;;;;;;;32.95;23.75;;;8.10;39.40;;;;;;5033158;28;20038;-79
2024/01/20 11:39:29;;;;;;;28.17;21.48;;;8.10;39.40;;;;;;5015248;28;20022;-79
2024/01/20 11:42:02;;;;;;;29.98;21.45;;;8.30;38.90;;;;;;5015573;28;20026;-79
2024/01/20 11:44:31;;;;;;;29.55;23.55;;;8.30;39.20;;;;;;5015397;28;20388;-79
2024/01/20 11:46:58;;;;;;;29.85;21.63;;;8.40;38.90;;;;;;5014977;28;20168;-78
2024/01/20 11:49:23;;;;;;;28.95;21.17;;;8.50;38.10;;;;;;5014831;28;20502;-77
2024/01/20 11:51:49;;;;;;;32.65;22.83;;;8.50;38.10;;;;;;5014608;28;20119;-80
2024/01/20 11:54:15;;;;;;;32.95;23.02;;;8.90;37.00;;;;;;5014859;28;20121;-78
2024/01/20 11:56:41;;;;;;;33.38;23.73;;;9.30;36.40;;;;;;4998670;28;20517;-77
2024/01/20 11:59:07;;;;;;;33.70;23.83;;;9.90;35.60;;;;;;5032463;28;20532;-78
2024/01/20 12:01:33;;;;;;;31.65;22.85;;;10.10;34.50;;;;;;5014774;28;20025;-79
2024/01/20 12:04:00;;;;;;;30.95;20.80;;;10.60;33.50;;;;;;5014752;28;20025;-80
2024/01/20 12:06:26;;;;;;;26.27;22.15;;;11.00;32.10;;;;;;5017792;28;20025;-80
2024/01/20 12:08:51;;;;;;;25.73;21.33;;;11.40;31.30;;;;;;5018406;28;20028;-78
2024/01/20 12:11:22;;;;;;;25.30;20.45;;;11.80;31.30;;;;;;5017977;28;20051;-79
2024/01/20 12:13:48;;;;;;;29.33;20.52;;;12.50;29.80;;;;;;5018295;28;20033;-79
2024/01/20 12:16:14;;;;;;;28.25;20.38;;;13.20;28.20;;;;;;5019051;28;20493;-79
2024/01/20 12:18:40;;;;;;;24.75;19.98;;;13.60;26.60;;;;;;5019290;28;20036;-81
2024/01/20 12:21:06;;;;;;;23.05;18.48;;;14.30;26.10;;;;;;5019473;28;20026;-80
2024/01/20 12:23:31;;;;;;;24.98;19.83;;;15.20;24.00;;;;;;5031924;28;20033;-79